KCHS

Charleston International Airport / Charleston AFB

Airport
ICAO code
KCHS
IATA Code
CHS
Summary
ICAO Region
NAM
ICAO Territory
Location

North Charleston, South Carolina

Serving
Charleston
Elevation
46 ft
Coordinates
32° 53' 40" N , 80° 2' 29" W
KCC
Metar
KCHS 210456Z 23003KT 10SM BKN150 23/19 A2991 RMK AO2 SLP128 T02330194 403280200

Description

Charleston International Airport / Charleston AFB is a joint civil-military (USAF) airport in North Charleston, Charleston County, South Carolina, USA.

Airport map

Aerial View

SKYbrary Partners:

Safety knowledge contributed by: